Time;durP1;ratioP1;P1;durP2;ratioP2;P2;SDS_P1;SDS_P2;PMS_P1;PMS_P2;Temp;Humidity;BMP_temperature;BMP_pressure;BME280_temperature;BME280_humidity;BME280_pressure;Samples;Min_cycle;Max_cycle;Signal;HPM_P1;HPM_P2
2022/03/19 00:01:45;;;;;;;39.07;15.23;;;;;;;38.70;46.32;100857.13;5095374;28;20457;-73
2022/03/19 00:04:11;;;;;;;29.60;12.93;;;;;;;38.76;46.17;100855.13;5113659;28;20426;-72
2022/03/19 00:06:39;;;;;;;31.53;15.80;;;;;;;38.47;46.75;100853.66;5095341;28;20457;-72
2022/03/19 00:09:09;;;;;;;32.10;14.40;;;;;;;38.72;46.68;100851.41;5095097;28;20416;-73
2022/03/19 00:11:35;;;;;;;45.37;15.67;;;;;;;38.84;46.07;100848.91;5095168;28;20423;-72
2022/03/19 00:14:02;;;;;;;40.43;14.67;;;;;;;38.84;45.35;100848.91;5113272;28;20408;-72
2022/03/19 00:16:28;;;;;;;41.90;14.60;;;;;;;38.79;46.19;100857.97;5095027;28;20441;-73
2022/03/19 00:18:55;;;;;;;32.70;12.63;;;;;;;38.74;46.16;100838.38;5094958;28;21044;-73
2022/03/19 00:21:21;;;;;;;32.33;13.63;;;;;;;38.72;45.58;100854.13;5094851;28;20801;-75
2022/03/19 00:23:47;;;;;;;48.33;16.53;;;;;;;38.53;46.35;100841.56;5095183;28;20444;-75
2022/03/19 00:26:14;;;;;;;31.90;15.13;;;;;;;38.83;45.97;100834.56;5094704;28;20523;-75
2022/03/19 00:28:41;;;;;;;28.30;12.90;;;;;;;38.82;46.16;100832.16;5113223;28;20385;-72
2022/03/19 00:31:08;;;;;;;45.70;18.03;;;;;;;38.78;46.12;100833.91;5113174;28;20395;-75
2022/03/19 00:33:34;;;;;;;48.53;15.20;;;;;;;38.81;45.51;100825.94;5094661;28;20906;-74
2022/03/19 00:36:00;;;;;;;36.13;14.70;;;;;;;38.93;45.52;100830.78;5112983;28;20428;-73
2022/03/19 00:38:27;;;;;;;49.73;14.40;;;;;;;39.00;45.70;100822.97;5094373;28;20458;-72
2022/03/19 00:40:53;;;;;;;32.53;13.23;;;;;;;38.98;45.73;100819.78;5094502;28;20420;-72
2022/03/19 00:43:20;;;;;;;40.40;14.20;;;;;;;39.03;44.91;100818.81;5111972;28;20400;-72
2022/03/19 00:45:49;;;;;;;38.93;14.70;;;;;;;39.03;44.94;100816.91;5094375;28;20440;-75
2022/03/19 00:48:17;;;;;;;39.23;14.23;;;;;;;38.96;45.20;100811.16;5094513;28;20412;-73
2022/03/19 00:50:44;;;;;;;35.53;11.80;;;;;;;39.24;44.40;100800.91;5112654;28;20829;-73
2022/03/19 00:53:10;;;;;;;28.20;13.03;;;;;;;39.11;44.49;100801.81;5094410;28;20412;-73
2022/03/19 00:55:36;;;;;;;37.83;13.23;;;;;;;39.14;45.04;100801.16;5094178;28;20475;-73
2022/03/19 00:58:02;;;;;;;27.00;13.40;;;;;;;39.12;45.15;100800.69;5094591;28;20408;-74
2022/03/19 01:00:28;;;;;;;33.27;15.53;;;;;;;39.10;44.63;100795.56;5112516;28;20463;-74
2022/03/19 01:02:56;;;;;;;49.53;12.00;;;;;;;39.22;44.27;100793.03;5094213;28;20503;-73
2022/03/19 01:05:24;;;;;;;29.03;12.50;;;;;;;39.23;44.59;100794.66;5094237;28;20450;-73
2022/03/19 01:07:53;;;;;;;34.90;13.80;;;;;;;39.42;44.35;100775.38;5094229;28;20480;-72
2022/03/19 01:10:22;;;;;;;56.07;13.80;;;;;;;39.31;44.14;100776.78;5094174;28;20412;-71
2022/03/19 01:12:49;;;;;;;29.87;13.67;;;;;;;39.47;44.09;100777.09;5112420;28;20435;-71
2022/03/19 01:15:16;;;;;;;26.47;12.93;;;;;;;39.38;44.00;100770.91;5112482;28;20450;-72
2022/03/19 01:17:43;;;;;;;38.60;14.03;;;;;;;39.28;43.97;100763.06;5094077;28;20426;-73
2022/03/19 01:20:12;;;;;;;29.63;17.17;;;;;;;39.03;44.59;100762.66;5093843;28;20499;-73
2022/03/19 01:22:39;;;;;;;38.03;16.00;;;;;;;39.09;44.79;100755.19;5094087;28;20977;-73
2022/03/19 01:25:08;;;;;;;38.17;13.77;;;;;;;39.09;44.63;100745.13;5093766;28;20458;-73
2022/03/19 01:27:35;;;;;;;36.63;11.93;;;;;;;39.01;44.55;100751.34;5112185;28;20522;-75
2022/03/19 01:30:04;;;;;;;34.67;17.20;;;;;;;39.12;44.33;100746.41;5093800;28;20400;-73
2022/03/19 01:32:31;;;;;;;33.33;13.87;;;;;;;39.15;44.42;100743.06;5112351;28;20396;-73
2022/03/19 01:34:57;;;;;;;41.77;16.13;;;;;;;39.04;44.58;100741.75;5093912;28;20447;-73
2022/03/19 01:37:24;;;;;;;34.73;16.07;;;;;;;38.97;44.69;100739.50;5093925;28;20427;-74
2022/03/19 01:39:53;;;;;;;37.03;15.70;;;;;;;38.85;44.93;100734.69;5093538;28;20552;-75
2022/03/19 01:42:28;;;;;;;33.10;13.30;;;;;;;39.11;44.40;100734.78;5112275;28;20416;-73
2022/03/19 01:44:57;;;;;;;23.83;13.63;;;;;;;39.22;43.96;100738.78;5112085;28;20428;-73
2022/03/19 01:47:26;;;;;;;30.43;12.53;;;;;;;39.22;44.28;100743.41;5094421;28;20487;-73
2022/03/19 01:49:52;;;;;;;29.80;12.73;;;;;;;39.20;44.42;100741.03;5111866;28;20432;-72
2022/03/19 01:52:18;;;;;;;31.57;14.23;;;;;;;39.08;44.63;100743.53;5093807;28;20427;-75
2022/03/19 01:54:47;;;;;;;35.20;12.87;;;;;;;39.01;44.95;100740.50;5096415;28;20420;-75
2022/03/19 01:57:17;;;;;;;47.70;13.70;;;;;;;39.02;44.37;100735.88;5097498;28;20464;-75
2022/03/19 01:59:44;;;;;;;48.60;16.17;;;;;;;38.98;44.74;100746.56;5080842;28;20462;-73
2022/03/19 02:02:11;;;;;;;36.70;14.93;;;;;;;38.99;44.91;100736.50;5097687;28;20424;-72
2022/03/19 02:04:39;;;;;;;35.40;13.80;;;;;;;39.06;44.96;100740.34;5097590;28;20917;-73
2022/03/19 02:07:11;;;;;;;50.43;18.13;;;;;;;38.94;44.94;100745.59;5079411;28;20796;-73
2022/03/19 02:09:39;;;;;;;27.77;14.30;;;;;;;39.11;44.59;100737.50;5076533;28;20436;-73
2022/03/19 02:12:06;;;;;;;28.67;15.30;;;;;;;38.99;45.24;100733.81;5095392;28;20397;-72
2022/03/19 02:14:40;;;;;;;52.40;14.37;;;;;;;38.77;45.85;100734.69;5077187;28;20805;-72
2022/03/19 02:17:09;;;;;;;45.20;15.80;;;;;;;38.90;45.37;100725.63;5076945;28;20958;-73
2022/03/19 02:19:48;;;;;;;30.73;12.80;;;;;;;38.79;45.55;100725.13;5077103;28;21063;-73
2022/03/19 02:22:14;;;;;;;38.47;13.97;;;;;;;38.87;45.44;100718.13;5095113;28;20483;-73
2022/03/19 02:27:25;;;;;;;35.07;16.03;;;;;;;38.88;44.67;100717.81;5095174;28;20389;-72
2022/03/19 02:29:52;;;;;;;48.33;13.10;;;;;;;39.01;44.69;100716.09;5076990;28;20412;-72
2022/03/19 02:32:18;;;;;;;38.17;14.33;;;;;;;38.79;45.35;100710.75;5076598;28;20440;-74
2022/03/19 02:34:44;;;;;;;41.43;15.60;;;;;;;38.64;45.68;100707.38;5076780;28;20409;-74
2022/03/19 02:37:10;;;;;;;40.37;14.70;;;;;;;38.77;45.59;100705.66;5076676;28;20445;-74
2022/03/19 02:39:36;;;;;;;45.70;15.33;;;;;;;38.58;45.62;100714.03;5076275;28;20472;-73
2022/03/19 02:42:07;;;;;;;35.63;15.60;;;;;;;38.59;45.76;100710.22;5076602;28;20417;-73
2022/03/19 02:44:34;;;;;;;34.93;15.50;;;;;;;38.55;45.84;100708.44;5076478;28;20412;-75
2022/03/19 02:47:05;;;;;;;58.27;17.07;;;;;;;38.69;45.40;100704.50;5076137;28;20420;-73
2022/03/19 02:49:31;;;;;;;33.63;16.47;;;;;;;38.37;45.89;100699.47;5059980;28;20496;-72
2022/03/19 02:51:58;;;;;;;33.57;14.93;;;;;;;38.61;45.69;100699.03;5076529;28;20469;-72
2022/03/19 02:54:26;;;;;;;38.60;15.73;;;;;;;38.61;45.61;100701.75;5076363;28;20413;-72
2022/03/19 02:56:54;;;;;;;48.60;17.27;;;;;;;38.59;46.04;100699.38;5076156;28;20465;-72
2022/03/19 02:59:25;;;;;;;35.13;15.33;;;;;;;38.80;45.74;100701.53;5076525;28;20602;-74
2022/03/19 03:01:55;;;;;;;34.77;14.20;;;;;;;38.77;45.84;100699.44;5060297;28;20412;-73
2022/03/19 03:04:21;;;;;;;27.90;13.57;;;;;;;38.86;45.43;100694.84;5075717;28;20941;-72
2022/03/19 03:06:50;;;;;;;40.10;18.23;;;;;;;38.86;45.60;100697.56;5075388;28;20421;-72
2022/03/19 03:09:19;;;;;;;51.50;18.97;;;;;;;38.78;45.71;100692.91;5059776;28;20449;-75
2022/03/19 03:11:46;;;;;;;29.60;13.93;;;;;;;38.85;45.39;100690.53;5059304;28;20419;-75
2022/03/19 03:14:13;;;;;;;43.67;16.57;;;;;;;38.80;45.66;100693.41;5076096;28;20420;-73
2022/03/19 03:16:41;;;;;;;39.83;14.73;;;;;;;38.73;45.39;100690.34;5094243;28;20404;-74
2022/03/19 03:19:10;;;;;;;41.77;15.77;;;;;;;38.64;45.82;100696.50;5075914;28;20518;-74
2022/03/19 03:21:36;;;;;;;46.30;16.33;;;;;;;38.64;45.72;100690.31;5075812;28;20421;-73
2022/03/19 03:24:03;;;;;;;50.33;17.27;;;;;;;38.76;45.87;100704.06;5059416;28;20405;-72
2022/03/19 03:26:30;;;;;;;43.37;14.20;;;;;;;38.70;46.20;100699.88;5059143;28;20440;-72
2022/03/19 03:28:57;;;;;;;26.00;15.27;;;;;;;38.68;45.78;100699.41;5076053;28;20385;-72
2022/03/19 03:31:24;;;;;;;46.73;13.10;;;;;;;38.68;45.95;100702.91;5093913;28;20389;-72
2022/03/19 03:33:50;;;;;;;33.37;14.13;;;;;;;38.85;45.50;100698.66;5075711;28;20485;-73
2022/03/19 03:36:16;;;;;;;40.07;14.60;;;;;;;38.92;45.60;100697.09;5075603;28;20428;-73
2022/03/19 03:38:42;;;;;;;36.83;15.27;;;;;;;38.85;45.69;100699.44;5075532;28;20409;-73
2022/03/19 03:41:09;;;;;;;40.23;17.70;;;;;;;38.91;45.73;100702.81;5075568;28;20492;-73
2022/03/19 03:43:35;;;;;;;36.93;12.87;;;;;;;38.75;45.92;100707.09;5075516;28;20437;-75
2022/03/19 03:46:02;;;;;;;37.17;15.60;;;;;;;38.64;45.95;100704.66;5075405;28;20405;-72
2022/03/19 03:48:29;;;;;;;32.07;14.90;;;;;;;38.62;46.17;100698.75;5058755;28;20416;-73
2022/03/19 03:50:57;;;;;;;36.53;14.17;;;;;;;38.58;46.06;100696.97;5075133;28;20834;-72
2022/03/19 03:53:25;;;;;;;51.13;15.90;;;;;;;38.59;46.14;100704.78;5042330;28;20942;-71
2022/03/19 03:55:51;;;;;;;26.27;12.67;;;;;;;38.53;46.26;100700.63;5075278;28;21080;-72
2022/03/19 03:58:18;;;;;;;42.50;15.93;;;;;;;38.71;45.88;100698.75;5075286;28;20448;-72
2022/03/19 04:00:44;;;;;;;41.73;15.77;;;;;;;38.53;46.20;100699.81;5075051;28;20457;-75
2022/03/19 04:03:11;;;;;;;34.33;16.07;;;;;;;38.68;45.43;100702.13;5074936;28;20505;-73
2022/03/19 04:05:38;;;;;;;33.33;14.10;;;;;;;38.58;45.34;100700.47;5075155;28;20486;-73
2022/03/19 04:08:05;;;;;;;25.43;15.90;;;;;;;38.78;45.35;100704.53;5075061;28;20409;-74
2022/03/19 04:10:31;;;;;;;27.60;13.83;;;;;;;38.86;44.84;100709.22;5074864;28;20946;-74
2022/03/19 04:12:58;;;;;;;45.53;15.80;;;;;;;38.74;45.38;100713.66;5074947;28;20463;-72
2022/03/19 04:15:25;;;;;;;44.93;14.20;;;;;;;38.70;45.22;100716.16;5093014;28;20930;-72
2022/03/19 04:17:51;;;;;;;36.90;18.07;;;;;;;38.70;45.34;100718.84;5074493;28;20417;-75
2022/03/19 04:20:18;;;;;;;39.93;16.00;;;;;;;38.60;45.73;100717.22;5074557;28;20459;-73
2022/03/19 04:22:46;;;;;;;39.07;14.90;;;;;;;38.38;45.78;100730.88;5074855;28;20429;-73
2022/03/19 04:25:20;;;;;;;37.23;18.13;;;;;;;38.59;45.53;100726.47;5074622;28;20475;-73
2022/03/19 04:27:50;;;;;;;34.33;14.97;;;;;;;38.58;45.45;100738.44;5092829;28;20393;-73
2022/03/19 04:30:18;;;;;;;43.33;15.37;;;;;;;38.78;45.46;100725.44;5074655;28;20425;-72
2022/03/19 04:32:49;;;;;;;39.43;16.37;;;;;;;38.73;45.40;100729.09;5074523;28;20419;-72
2022/03/19 04:38:07;;;;;;;43.73;15.30;;;;;;;38.74;45.43;100738.06;5092914;28;20392;-73
2022/03/19 04:40:35;;;;;;;37.63;12.93;;;;;;;38.67;45.14;100733.03;5074285;28;20987;-75
2022/03/19 04:43:02;;;;;;;32.03;13.40;;;;;;;38.77;45.25;100734.69;5074478;28;20413;-74
2022/03/19 04:45:28;;;;;;;57.50;17.13;;;;;;;38.59;45.70;100733.81;5074331;28;20803;-74
2022/03/19 04:47:54;;;;;;;49.83;16.73;;;;;;;38.80;45.06;100723.22;5074213;28;20455;-73
2022/03/19 04:50:21;;;;;;;32.17;13.80;;;;;;;38.92;44.92;100729.63;5074255;28;20485;-73
2022/03/19 04:52:48;;;;;;;47.50;16.33;;;;;;;38.50;45.68;100736.50;5074066;28;20456;-73
2022/03/19 04:55:15;;;;;;;25.93;13.17;;;;;;;38.48;45.96;100736.00;5073971;28;20554;-72
2022/03/19 04:57:41;;;;;;;35.13;14.17;;;;;;;38.59;45.87;100740.03;5074253;28;20409;-74
2022/03/19 05:00:10;;;;;;;37.47;13.07;;;;;;;38.68;45.65;100749.00;5074054;28;20974;-75
2022/03/19 05:02:36;;;;;;;50.53;16.93;;;;;;;38.41;45.82;100741.88;5074169;28;20923;-72
2022/03/19 05:05:03;;;;;;;37.00;13.67;;;;;;;38.62;46.00;100746.75;5074133;28;20417;-72
2022/03/19 05:07:35;;;;;;;38.47;16.03;;;;;;;38.62;45.75;100742.13;5074130;28;20408;-72
2022/03/19 05:12:48;;;;;;;34.40;13.37;;;;;;;38.58;45.12;100751.19;5092476;28;20922;-72
2022/03/19 05:15:15;;;;;;;32.20;15.00;;;;;;;38.85;45.02;100755.59;5073962;28;20919;-73
2022/03/19 05:17:42;;;;;;;52.13;16.23;;;;;;;38.89;44.79;100753.88;5092185;28;20394;-73
2022/03/19 05:20:10;;;;;;;45.60;14.67;;;;;;;38.85;44.96;100761.03;5073961;28;20475;-75
2022/03/19 05:22:36;;;;;;;40.53;15.17;;;;;;;39.07;44.22;100760.94;5057370;28;20488;-75
2022/03/19 05:25:04;;;;;;;50.83;18.57;;;;;;;38.92;44.66;100767.59;5073891;28;20436;-73
2022/03/19 05:27:31;;;;;;;36.23;18.27;;;;;;;39.02;44.51;100761.06;5073768;28;20441;-73
2022/03/19 05:29:57;;;;;;;24.43;14.80;;;;;;;39.08;44.50;100767.16;5077323;28;20440;-73
2022/03/19 05:32:23;;;;;;;51.67;15.50;;;;;;;39.12;44.45;100770.84;5078016;28;21025;-74
2022/03/19 05:34:51;;;;;;;31.60;15.43;;;;;;;38.72;46.00;100767.38;5061217;28;20574;-73
2022/03/19 05:37:17;;;;;;;47.70;15.30;;;;;;;38.84;45.16;100764.84;5077980;28;20424;-73
2022/03/19 05:39:43;;;;;;;33.67;14.13;;;;;;;38.87;44.79;100775.09;5061107;28;21059;-74
2022/03/19 05:42:11;;;;;;;42.07;13.23;;;;;;;38.93;44.63;100777.34;5096089;28;20431;-74
2022/03/19 05:44:38;;;;;;;48.27;17.07;;;;;;;38.61;45.33;100778.47;5077850;28;20416;-73
2022/03/19 05:47:05;;;;;;;35.60;11.67;;;;;;;38.86;44.88;100784.34;5060971;28;20524;-72
2022/03/19 05:49:31;;;;;;;39.33;16.00;;;;;;;38.79;45.44;100781.25;5061196;28;20425;-74
2022/03/19 05:51:58;;;;;;;42.97;17.80;;;;;;;38.62;44.85;100782.00;5077215;28;20437;-73
2022/03/19 05:54:25;;;;;;;40.50;13.37;;;;;;;38.69;44.98;100785.84;5095866;28;20400;-75
2022/03/19 05:56:55;;;;;;;29.13;15.20;;;;;;;38.53;45.24;100786.56;5077463;28;20479;-75
2022/03/19 05:59:22;;;;;;;38.87;15.90;;;;;;;38.55;45.34;100793.28;5095674;28;20437;-75
2022/03/19 06:01:48;;;;;;;55.20;17.10;;;;;;;38.44;45.40;100790.03;5095542;28;20393;-73
2022/03/19 06:04:15;;;;;;;29.47;14.87;;;;;;;38.79;45.08;100798.31;5077472;28;20409;-74
2022/03/19 06:06:42;;;;;;;29.87;12.63;;;;;;;38.76;45.29;100800.88;5077418;28;20416;-73
2022/03/19 06:09:08;;;;;;;38.83;14.97;;;;;;;38.88;44.97;100796.47;5077176;28;20443;-73
2022/03/19 06:11:34;;;;;;;35.30;17.03;;;;;;;38.95;44.80;100812.28;5076723;28;20910;-73
2022/03/19 06:14:00;;;;;;;38.30;14.70;;;;;;;38.79;45.37;100814.59;5077140;28;20436;-75
2022/03/19 06:16:26;;;;;;;32.00;15.60;;;;;;;39.01;44.77;100821.06;5076439;28;20431;-73
2022/03/19 06:18:52;;;;;;;39.10;14.90;;;;;;;38.89;45.11;100811.63;5077405;28;20420;-73
2022/03/19 06:21:22;;;;;;;44.33;15.53;;;;;;;38.98;45.07;100814.38;5060433;28;20906;-72
2022/03/19 06:23:50;;;;;;;51.07;14.90;;;;;;;38.94;45.27;100816.91;5060853;28;20419;-71
2022/03/19 06:26:17;;;;;;;38.43;14.57;;;;;;;38.97;44.79;100823.59;5076851;28;20428;-73
2022/03/19 06:28:44;;;;;;;45.83;17.70;;;;;;;38.87;44.99;100832.84;5060381;28;20417;-73
2022/03/19 06:31:10;;;;;;;34.13;15.97;;;;;;;39.02;44.47;100831.59;5076896;28;20412;-75
2022/03/19 06:33:40;;;;;;;32.90;14.60;;;;;;;39.15;44.25;100824.44;5095067;28;20465;-73
2022/03/19 06:38:50;;;;;;;38.93;15.20;;;;;;;38.98;44.70;100841.50;5095411;28;20388;-74
2022/03/19 06:41:17;;;;;;;36.93;14.00;;;;;;;39.07;44.77;100841.50;5095059;28;20393;-74
2022/03/19 06:43:46;;;;;;;44.53;20.07;;;;;;;39.07;44.49;100845.03;5076091;28;20420;-73
2022/03/19 06:46:12;;;;;;;43.00;15.70;;;;;;;38.92;44.65;100846.25;5094860;28;20393;-73
2022/03/19 06:48:38;;;;;;;49.07;15.80;;;;;;;38.87;45.25;100857.25;5059569;28;20428;-72
2022/03/19 06:51:04;;;;;;;42.13;14.70;;;;;;;39.11;44.57;100861.47;5076010;28;20432;-72
2022/03/19 06:53:30;;;;;;;43.40;12.93;;;;;;;39.22;44.51;100862.78;5072641;28;20433;-72
2022/03/19 06:55:56;;;;;;;39.17;15.73;;;;;;;39.05;44.37;100855.41;5071269;28;20464;-71
2022/03/19 06:58:22;;;;;;;41.93;18.37;;;;;;;38.83;45.28;100856.25;5069356;28;20857;-71
2022/03/19 07:00:49;;;;;;;26.70;16.30;;;;;;;38.86;45.45;100861.06;5054154;28;21083;-73
2022/03/19 07:03:15;;;;;;;39.50;17.40;;;;;;;38.96;44.94;100859.97;5088517;28;20409;-72
2022/03/19 07:05:41;;;;;;;37.07;15.70;;;;;;;39.07;44.94;100865.94;5066360;28;21222;-72
2022/03/19 07:08:08;;;;;;;57.03;19.27;;;;;;;39.07;45.15;100872.16;5085512;28;20421;-71
2022/03/19 07:10:35;;;;;;;31.47;16.27;;;;;;;39.13;44.72;100864.66;5085931;28;20853;-73
2022/03/19 07:13:02;;;;;;;46.50;17.00;;;;;;;38.85;45.32;100869.50;5086962;28;20496;-72
2022/03/19 07:15:28;;;;;;;46.73;18.70;;;;;;;38.89;45.03;100871.28;5069207;28;20444;-74
2022/03/19 07:17:56;;;;;;;49.47;19.47;;;;;;;39.12;44.43;100874.72;5093906;28;20452;-72
2022/03/19 07:20:23;;;;;;;40.57;14.17;;;;;;;39.15;44.53;100882.22;5069369;28;20530;-71
2022/03/19 07:22:55;;;;;;;49.87;16.10;;;;;;;39.26;44.26;100890.13;5068095;28;20472;-69
2022/03/19 07:25:26;;;;;;;33.57;13.30;;;;;;;39.11;44.27;100888.59;5073700;28;20473;-70
2022/03/19 07:27:55;;;;;;;46.57;17.07;;;;;;;39.07;44.34;100888.44;5055561;28;20540;-69
2022/03/19 07:30:22;;;;;;;37.13;15.07;;;;;;;39.25;43.93;100880.38;5061869;28;20441;-70
2022/03/19 07:32:48;;;;;;;42.50;16.87;;;;;;;39.27;44.10;100886.28;5075491;28;20805;-69
2022/03/19 07:35:15;;;;;;;44.33;16.87;;;;;;;39.19;44.13;100890.56;5075610;28;20494;-69
2022/03/19 07:37:43;;;;;;;38.13;14.50;;;;;;;39.20;43.81;100890.25;5098074;28;20393;-69
2022/03/19 07:40:14;;;;;;;34.47;12.37;;;;;;;39.31;43.86;100900.84;5058519;28;20468;-68
2022/03/19 07:42:41;;;;;;;42.67;15.00;;;;;;;39.23;44.22;100891.56;5059511;28;20427;-70
2022/03/19 07:45:08;;;;;;;26.93;14.93;;;;;;;39.37;43.82;100894.94;5057491;28;20507;-69
2022/03/19 07:47:35;;;;;;;44.67;15.50;;;;;;;39.39;43.82;100906.28;5057215;28;20445;-70
2022/03/19 07:50:02;;;;;;;36.77;16.73;;;;;;;39.30;43.83;100905.47;5077937;28;20986;-68
2022/03/19 07:52:28;;;;;;;49.63;16.20;;;;;;;39.34;43.59;100902.91;5082245;28;20412;-72
2022/03/19 07:54:54;;;;;;;28.10;12.93;;;;;;;39.32;44.05;100911.34;5077404;28;20447;-72
2022/03/19 07:57:24;;;;;;;32.13;14.77;;;;;;;39.30;44.13;100916.31;5076607;28;20477;-70
2022/03/19 07:59:51;;;;;;;40.33;14.27;;;;;;;39.53;43.77;100925.13;5060827;28;20475;-69
2022/03/19 08:02:17;;;;;;;41.27;15.70;;;;;;;39.37;43.92;100929.41;5078506;28;20951;-68
2022/03/19 08:04:43;;;;;;;24.43;12.07;;;;;;;39.19;44.43;100931.28;5104525;28;20440;-69
2022/03/19 08:07:10;;;;;;;37.23;17.10;;;;;;;39.07;44.81;100931.81;5072602;28;20413;-70
2022/03/19 08:09:39;;;;;;;31.50;15.00;;;;;;;38.94;44.82;100938.94;5077492;28;20444;-70
2022/03/19 08:12:06;;;;;;;37.87;13.90;;;;;;;39.18;44.40;100941.31;5074481;28;20413;-67
2022/03/19 08:14:32;;;;;;;34.53;14.70;;;;;;;39.38;44.02;100952.72;5092456;28;20459;-69
2022/03/19 08:16:58;;;;;;;50.00;15.77;;;;;;;39.34;44.05;100949.81;5074744;28;20436;-70
2022/03/19 08:19:25;;;;;;;43.10;14.53;;;;;;;39.48;43.87;100944.31;5074790;28;20510;-68
2022/03/19 08:21:52;;;;;;;33.40;14.60;;;;;;;39.52;43.59;100947.19;5093091;28;20405;-70
2022/03/19 08:24:23;;;;;;;45.83;16.70;;;;;;;39.46;43.94;100949.22;5092730;28;20389;-70
2022/03/19 08:26:51;;;;;;;41.50;15.20;;;;;;;39.43;44.30;100949.88;5058469;28;20501;-70
2022/03/19 08:29:18;;;;;;;52.70;15.07;;;;;;;39.43;44.24;100944.44;5074694;28;20935;-70
2022/03/19 08:31:44;;;;;;;35.40;16.20;;;;;;;39.50;43.54;100937.44;5074549;28;20911;-68
2022/03/19 08:34:10;;;;;;;27.43;13.43;;;;;;;39.47;43.90;100929.13;5074456;28;20409;-68
2022/03/19 08:36:36;;;;;;;37.27;17.30;;;;;;;39.28;44.48;100936.72;5074624;28;21090;-68
2022/03/19 08:41:47;;;;;;;39.27;14.43;;;;;;;39.57;43.45;100939.69;5092576;28;20395;-70
2022/03/19 08:44:13;;;;;;;47.37;14.47;;;;;;;39.55;43.09;100941.13;5074679;28;20796;-67
2022/03/19 08:46:39;;;;;;;47.03;15.57;;;;;;;39.48;43.17;100944.31;5094632;28;20403;-69
2022/03/19 08:49:05;;;;;;;28.90;13.57;;;;;;;39.64;43.01;100950.13;5074168;28;20412;-70
2022/03/19 08:51:40;;;;;;;25.87;13.40;;;;;;;39.78;42.76;100949.97;5079557;28;20418;-69
2022/03/19 08:54:14;;;;;;;34.67;13.23;;;;;;;39.74;42.54;100947.13;5112680;28;20444;-69
2022/03/19 08:56:41;;;;;;;28.77;11.80;;;;;;;39.76;42.48;100953.00;5085911;28;20521;-68
2022/03/19 08:59:07;;;;;;;43.77;14.23;;;;;;;39.86;42.14;100951.94;5041037;28;20463;-70
2022/03/19 09:01:33;;;;;;;41.17;17.07;;;;;;;39.82;41.95;100942.81;5092156;28;20391;-71
2022/03/19 09:04:00;;;;;;;43.80;15.83;;;;;;;39.66;42.52;100954.13;5072717;28;20504;-68
2022/03/19 09:06:26;;;;;;;46.53;14.83;;;;;;;39.73;42.63;100957.19;5074205;28;20416;-68
2022/03/19 09:08:52;;;;;;;29.23;13.57;;;;;;;39.82;42.27;100957.19;5073684;28;20408;-67
2022/03/19 09:11:19;;;;;;;39.97;13.67;;;;;;;39.85;42.39;100944.91;5071729;28;20800;-70
2022/03/19 09:13:47;;;;;;;35.67;12.30;;;;;;;39.81;42.11;100954.78;5073622;28;20792;-69
2022/03/19 09:16:13;;;;;;;39.10;14.43;;;;;;;39.86;42.37;100951.94;5073920;28;20412;-70
2022/03/19 09:18:40;;;;;;;30.40;12.27;;;;;;;39.75;42.39;100956.84;5073989;28;20550;-68
2022/03/19 09:21:06;;;;;;;32.70;13.37;;;;;;;39.68;42.64;100960.03;5057279;28;20989;-68
2022/03/19 09:23:32;;;;;;;42.87;15.37;;;;;;;39.57;42.95;100955.97;5092023;28;20781;-69
2022/03/19 09:25:58;;;;;;;39.90;13.37;;;;;;;39.73;42.80;100959.09;5073867;28;20436;-68
2022/03/19 09:28:24;;;;;;;45.33;16.23;;;;;;;39.74;42.83;100952.53;5073988;28;20448;-69
2022/03/19 09:30:51;;;;;;;39.03;16.70;;;;;;;39.82;42.74;100954.47;5073942;28;20496;-70
2022/03/19 09:33:17;;;;;;;38.63;17.50;;;;;;;39.67;42.25;100946.78;5073998;28;20417;-67
2022/03/19 09:35:45;;;;;;;33.90;17.33;;;;;;;39.76;42.50;100951.09;5073910;28;20412;-67
2022/03/19 09:38:13;;;;;;;36.33;15.03;;;;;;;39.78;42.72;100963.56;5057344;28;20421;-70
2022/03/19 09:40:40;;;;;;;54.13;17.10;;;;;;;39.84;42.09;100965.84;5073792;28;20448;-70
2022/03/19 09:43:06;;;;;;;38.17;16.23;;;;;;;39.95;42.30;100956.22;5091810;28;20394;-68
2022/03/19 09:45:34;;;;;;;38.63;15.57;;;;;;;39.95;42.34;100958.16;5073617;28;20990;-68
2022/03/19 09:48:00;;;;;;;34.30;13.93;;;;;;;39.94;42.15;100960.06;5057166;28;20425;-68
2022/03/19 09:50:27;;;;;;;34.83;14.60;;;;;;;39.99;41.99;100959.94;5073815;28;20866;-68
2022/03/19 09:52:54;;;;;;;36.83;13.20;;;;;;;40.14;42.25;100966.81;5073810;28;20416;-70
2022/03/19 09:55:26;;;;;;;40.57;16.87;;;;;;;40.09;42.41;100977.88;5056619;28;20618;-70
2022/03/19 09:57:54;;;;;;;53.53;17.53;;;;;;;40.16;42.14;100975.47;5073701;28;20580;-70
2022/03/19 10:00:22;;;;;;;33.87;14.90;;;;;;;40.19;41.60;100977.53;5057184;28;20825;-68
2022/03/19 10:02:59;;;;;;;40.97;12.87;;;;;;;40.13;41.91;100976.09;5073594;28;20412;-67
2022/03/19 10:11:00;;;;;;;32.93;13.17;;;;;;;39.84;42.24;100975.88;5076707;28;20454;-70
2022/03/19 10:13:26;;;;;;;36.27;13.90;;;;;;;39.87;42.42;100975.25;5073355;28;20915;-70
2022/03/19 10:15:53;;;;;;;30.63;13.90;;;;;;;39.91;42.55;100970.78;5076359;28;20417;-70
2022/03/19 10:18:29;;;;;;;38.97;18.33;;;;;;;39.96;42.03;100974.16;5077109;28;20448;-70
2022/03/19 10:21:01;;;;;;;36.23;12.10;;;;;;;40.03;42.25;100970.97;5077099;28;20455;-68
2022/03/19 10:23:31;;;;;;;36.43;12.97;;;;;;;40.13;42.15;100980.75;5060661;28;20424;-67
2022/03/19 10:25:57;;;;;;;42.37;13.40;;;;;;;40.23;41.43;100983.16;5060388;28;20824;-70
2022/03/19 10:28:35;;;;;;;23.37;13.00;;;;;;;40.10;41.48;100981.38;5077387;28;20459;-68
2022/03/19 10:31:02;;;;;;;32.30;13.47;;;;;;;40.25;41.76;100970.81;5076954;28;20448;-67
2022/03/19 10:33:34;;;;;;;29.40;13.57;;;;;;;40.37;41.47;100975.63;5076918;28;20417;-68
2022/03/19 10:36:11;;;;;;;45.07;14.60;;;;;;;40.33;42.02;100966.53;5077768;28;20428;-68
2022/03/19 10:38:42;;;;;;;33.57;16.57;;;;;;;40.21;42.11;100964.47;5095102;28;20396;-70
2022/03/19 10:41:09;;;;;;;43.37;16.80;;;;;;;40.28;41.73;100967.50;5059995;28;20517;-68
2022/03/19 10:43:35;;;;;;;30.63;12.77;;;;;;;40.11;41.68;100962.03;5076680;28;20413;-68
2022/03/19 10:46:04;;;;;;;35.57;14.67;;;;;;;40.28;41.84;100959.34;5076083;28;20417;-67
2022/03/19 10:48:31;;;;;;;34.70;13.67;;;;;;;39.96;42.35;100962.47;5076594;28;20858;-69
2022/03/19 10:50:58;;;;;;;31.63;13.33;;;;;;;40.00;42.39;100963.44;5056241;28;20517;-70
2022/03/19 10:53:26;;;;;;;36.53;12.70;;;;;;;40.17;42.30;100958.06;5087029;28;20431;-70
2022/03/19 10:55:53;;;;;;;44.03;14.00;;;;;;;40.04;42.30;100959.00;5059850;28;20555;-69
2022/03/19 10:58:21;;;;;;;43.47;13.77;;;;;;;40.05;42.75;100949.72;5075964;28;20474;-67
2022/03/19 11:00:50;;;;;;;26.13;11.70;;;;;;;40.15;42.07;100946.72;5075891;28;20444;-67
2022/03/19 11:03:27;;;;;;;44.23;13.83;;;;;;;40.35;42.18;100945.25;5075796;28;20417;-70
2022/03/19 11:06:01;;;;;;;40.37;13.60;;;;;;;40.24;41.60;100936.63;5075762;28;20927;-68
2022/03/19 11:08:29;;;;;;;31.00;12.77;;;;;;;40.25;41.52;100934.69;5057354;28;20944;-68
2022/03/19 11:10:58;;;;;;;35.50;13.63;;;;;;;40.28;42.14;100945.75;5075643;28;20508;-70
2022/03/19 11:13:28;;;;;;;26.43;12.47;;;;;;;40.16;42.12;100940.16;5094116;28;20416;-68
2022/03/19 11:15:57;;;;;;;30.53;10.90;;;;;;;40.32;41.91;100942.38;5075552;28;20456;-68
2022/03/19 11:18:25;;;;;;;32.13;11.17;;;;;;;40.24;41.72;100938.53;5075102;28;20464;-68
2022/03/19 11:20:51;;;;;;;32.57;15.80;;;;;;;39.95;42.34;100939.13;5075406;28;20905;-67
2022/03/19 11:23:28;;;;;;;33.33;13.87;;;;;;;39.87;42.54;100942.66;5076001;28;20417;-69
2022/03/19 11:25:57;;;;;;;32.73;14.20;;;;;;;40.17;42.00;100930.06;5074473;28;20456;-70
2022/03/19 11:28:24;;;;;;;27.23;11.63;;;;;;;40.03;42.33;100931.00;5091553;28;20437;-70
2022/03/19 11:31:04;;;;;;;37.40;14.43;;;;;;;39.97;42.47;100924.13;5059016;28;20419;-69